Signals | Radovan Vlacilik, Stupava, SVK - JN88mg
Paging Controls
KHz ID LSB USB Sec. Fmt. Location S/P ITU Region GSQ Power Logs Notes Latest by Listener Last Heard KM Miles Deg
231 R 1032 1022 8.06 IDx1+7" gap Malacky - Kuchyna SVK eu JN88nj 2 SENDING TST (11DEC2019) 2021-01-22 2022-11-20 15 9 23
255 NS 1012 1021 9.88 ID+8" tone Nis SRB eu KN03vh 1 2021-01-18 2022-09-24 663 412 144
258 N 399 401 10 ID+9" gap Ostrava / Mosnov / Nada CZE eu JN99br 2 2021-01-22 2022-07-29 180 112 25
265 KAV 1033 1026 8.54 ID+5" gap Pula / Kavran HRV eu JN74av 50 1 2021-01-18 2022-09-24 440 273 212
266 M 1016 1021 8.13 ID+7" gap Baia Mare ROU eu KN17rp 1 2021-01-18 2022-10-12 483 300 95
277 PO 401 1011 15.21 Pulkovo RUS eu KO59et 1 400 / 1020 Hz OFFSETS 2021-01-18 2022-10-30 1544 960 28
280 ND 1024 1023 4.59 ID+5" gap Swidwin POL eu JO73ws 1 EX D-327.0 2021-01-18 2022-10-30 617 383 352
282 NF 1004 1007 4.38 Minsk Mazowiecki / Faktor POL eu KO02ue 1 2021-01-22 2022-10-12 547 340 35
284 FSB 1045 1041 16.51 Fassberg DEU eu JO52cv 25 1 2021-01-18 2022-09-24 705 438 319
285 LCF 400 402 6.65 ID+3" gap Linkoping / Malmen SWE eu JO78rh 1 2021-01-18 2022-11-25 1121 697 355
285 URB 1026 1024 7.5 ID+3\" gap Roma / Urbe (RM) ITA eu JN61fw 1 Province : Roma 2021-01-18 2022-10-13 790 491 208
289 AP 394 841 15.3 IDx2 + 7" gap Chertovitskoye / Vorenezh RUS eu KO91ps 1 2021-01-18 2022-10-29 1629 1012 67
289 HR 400 403 10.42 ID+7" gap Hericourt FRA eu JN37in 25 1 2021-01-18 2022-10-06 773 481 268
289 RI 1030 1030 8.51 ID+6" gap Rijeka / Krk HRV eu JN75hd 1 2021-01-18 2022-09-24 393 244 208
290 GRZ 1021 1020 10.04 ID+3" gap Graz AUT eu JN76rw 80 1 2021-01-18 2022-11-25 190 118 219
290 IF 396 401 10.1 ID+8" gap Ivano-Frankovsk UKR eu KN28ju 1 1020 or 400 Hz OFFSETS 2021-01-22 2021-10-03 574 356 80
290 ONL 403 401 10.08 ID+6" gap Liege / Bierset BEL eu JO20sq 15 1 2021-01-18 2022-11-23 872 542 292
291 KZN 345 424 8.21 ID+5" gap Kozani / Filippos GRC eu KN00wg 1 2021-01-18 2022-10-16 969 602 154
291 WS 401 409 10.42 ID+8" gap Grenoble / St Geoirs FRA eu JN25ni 1 2021-01-18 2022-07-11 962 598 254
292 CAY 1021 879 8.1 ID+6" gap Caycuma TUR as KN61bm 1 2021-01-18 2022-11-11 1401 871 116
292 NKR 1019 1019 8.5 ID+5" gap Neckar DEU eu JN49ii 25 1 2021-01-18 2022-09-24 622 386 284
293 OB 404 401 10.08 ID+7" gap Brussels National BEL eu JO20hw 1 2021-01-18 2022-11-23 941 585 293
293 STE 10.08 ID+8" gap Wien / Schwechat / Steinhof AUT eu JN88cf 1 Decommissioned 2022-09-01 2021-01-18 2022-06-25 62 38 266
295 DC 1014 1024 6.55 ID+2" gap Debrecen HNG eu KN07sk 1 SLOW KEYING 2021-01-18 2022-10-12 348 216 103
295 PT 993 989 9.94 ID+6" tone Skopje MKD eu KN01tv 50 1 2021-01-18 2022-11-18 795 494 151
296 MG 1021 1018 10.08 ID+7" gap Ljubljana SVN eu JN76ge 1 2021-01-18 2022-09-26 299 186 220
297 BD 1016 1022 4.38 ID+2"gap Pazardjik / Malak Chardak BUL eu KN22ig 1 Fast keying 2021-01-18 2022-10-18 896 557 135
297 FR 1031 1009 3.93 ID+1" gap Frankfurt DEU eu JO40ib 25 1 2021-01-18 2022-09-24 637 396 291
297 PEP 992 1030 9.88 ID+5" tone Prilep MKD eu KN01ri 1 2021-01-18 2022-11-18 844 524 154
297 PNY 1020 Piestany SVK eu JN88vo 1 WAS C 2021-01-18 2021-05-06 67 41 55
300 KD 1087 932 7.04 Kbely / Praha East CZE eu JO70hd 1 Also miskeying as UD 2021-01-18 2022-06-24 273 169 320
301.5 TRE 1014 1022 9.79 ID+7" gap Treviso (TV) ITA eu JN65bo 25 1 Province : Treviso 2021-01-18 2022-09-24 477 296 233
302 NIK 1011 1020 9.79 ID+6" tone Niksic MNE eu JN92ls 40 1 2021-01-18 2022-10-12 629 391 165
302 ROM 402 404 10.3 ID+7" gap Rodez / Marcillac FRA eu JN14hi 1 2021-01-18 2022-10-30 1187 738 253
303 KPG 403 403 8.09 ID+4" gap Sogndal / Haukasen / Kaupanger NOR eu JP31oe 1 2021-01-18 2022-10-13 1565 972 340
303 RTT 1019 1017 10.08 ID+8" gap Innsbruck / Rattenberg AUT eu JN57xk 1 2021-01-18 2022-09-24 390 243 258
306.5 AV 5 22.54 ID+18" tone Avord FRA eu JN16lv 1 2021-01-18 2022-03-26 1066 662 267
307 DIK 403 397 8.09 ID+5" gap Diekirch LUX eu JN39bu 1 2021-01-18 2022-11-21 814 506 286
307.5 PA 999 1010 10.63 ID+6" gap Palma De Mallorca BAL eu JM19jo 1 2021-01-18 2022-10-16 1489 925 234
309 LG 399 398 5.21 Satenas / Tune SWE eu JO68ik 1 2021-01-18 2022-11-25 1166 724 347
309 MW 1022 1020 10.08 Berlin / Schonefeld DEU eu JO62qi 1 2021-01-18 2021-06-09 523 325 331
310 VA 405 400 4.5 ID+2" gap Amal V12 LBY af KL09ml 1 2021-01-18 2022-11-16 2117 1315 169
311 CEL 1021 1020 10.08 ID+7" gap Celle DEU eu JO52ao 25 1 2021-01-18 2022-09-24 691 429 316
311 LMA 401 402 10.08 ID+7" gap Lima / Bruggen DEU eu JO31ei 25 1 2021-01-18 2022-11-25 838 520 298
311 NSN 1039 1040 16.35 ID+12" tone Niederstetten DEU eu JN49xj 25 1 2021-01-18 2022-09-24 533 331 286
312 DAN 990 986 9.7 ID+7" tone Danilvograd For Podgorica MNE eu JN92nn 1 DRIFTING 2021-01-18 2022-10-10 655 407 164
313 KI 1018 1019 10.08 Klagenfurt AUT eu JN76ep 1 2021-01-18 2022-09-24 270 168 228
315.5 SS 403 405 9.19 Scatsta SHE eu IP90jl 1 2020-06-27 2020-10-23 1788 1111 326
316 CAL 1021 1020 10.08 ID+6" gap Cagliari / Elmas SAR eu JM49mf 1 2021-01-18 2022-10-13 1192 740 215
316 TNJ 1038 1029 8.45 ID+5" gap Tounj HRV eu JN75qg 1 2021-01-18 2022-09-24 357 222 201
317 OZ 410 407 8.47 ID+5" gap Kardla EST eu KO18kw 1 2021-01-18 2022-03-27 1246 774 15
317 PPD 1040 1048 11.02 ID+3" gap Poprad / Tatry SVK eu KN09eb 1 2021-01-18 2022-10-12 260 162 68
317 VS 406 404 10.42 ID+8" gap Valenciennes / Denain FRA eu JO10qi 1 2021-01-18 2022-11-21 1016 631 288
317.5 TRP 1025 1019 7.52 ID+3" gap Marsala (TP) SCY eu JM67fv 25 1 u/s untill January 10, 2022; Province : Trapani 2021-01-18 2022-01-21 1212 753 199
318 BE 397 406 10.3 Bordeaux / Merignac FRA eu IN94tu 25 1 2021-01-18 2022-09-26 1381 858 260
318 GEN 1024 1019 10.03 ID+7" gap Genova (GE) ITA eu JN44mk 1 SENDING *TEST* - Province : Genova 2021-01-18 2021-12-26 747 464 238
318 HIG 408 398 10.04 ID+1" gap Bremen DEU eu JO43kb 25 1 2021-01-18 2022-08-27 783 487 315
318 KEF 425 417 7.16 ID+5" gap Keffalinia GRC eu KM08ge 1 2021-01-18 2022-07-12 1156 718 164
318 KLP 1029 1036 8.41 ID+4" gap Dubrovnik / Kolocep HRV eu JN92aq 50 1 2021-01-18 2022-10-12 626 389 172
318 LE 1021 1020 10.08 ID+8\" gap Luxembourg-Est LUX eu JN39dp 1 2021-01-22 2022-09-24 799 496 285
318 LP 412 409 5.06 Ronneby / Kallinge SWE eu JO76pi 1 2021-01-18 2021-12-29 907 563 353
318 OTR 1010 1022 8.12 ID+5" gap Bucuresti / Otopeni ROU eu KN34co 1 SLOW KEYING - ALSO HEARD AS PIM, CO & TRO 2021-01-18 2022-10-18 811 504 116
319 ECV 1020 1019 5.85 ID+3" gap Colmenar Viejo ESP eu IN80cq 50 1 2021-01-18 2022-11-21 1847 1148 250
319 VAR 396 406 8.08 ID+4" gap Stavanger / Sola / Varhaug NOR eu JO28tp 25 1 WAS LEC 2021-01-18 2021-09-12 1375 854 331
320 LSU 14 19.34 ID+15" tone Limoges / Bellegarde FRA eu JN05ns 1 keyed carrier NDB 2021-01-18 2022-09-26 1236 768 262
320 RUM 1016 1019 10.08 ID+6" gap Innsbruck / Rum AUT eu JN57rg 2 2021-01-24 2022-09-24 432 268 257
320 VE 397 404 10.3 ID+9" gap Valence / Chabeuil FRA eu JN24lu 15 2 2021-01-23 2022-11-21 997 620 252
320 VL 1019 1017 5.26 ID+2.5" gap Pula / Valtura HRV eu JN64wv 1 2021-01-18 2022-09-19 446 277 213
321 ABY 401 405 10.26 ID+6" gap Albert / Bray FRA eu JN19jx 2 2021-01-23 2022-11-23 1052 654 285
321 BU 1018 1038 8.3 ID+6" gap Burgas BUL eu KN32rm 2 400 / 1020 Hz OFFSETS 2021-01-23 2022-04-22 1033 642 124
321 TL 400 405 10.36 ID+8" gap Tarbes / Ossun / Lourdes FRA eu JN03ag 100 1 2021-01-18 2022-09-26 1427 887 253
321 VO 409 391 5.27 ID+2" gap Vojens / Skrydstrup DNK eu JO45pf 2 EX SP 2021-01-23 2022-11-18 939 583 328
322 IKA 454 422 11.02 ID+6" gap Ikaria GRC eu KM37eq 1 2021-01-18 2021-10-17 1398 869 143
322 OD 392 403 4.96 ID+2" gap Ornskoldsvik SWE eu JP93kk 2 2021-01-23 2022-10-15 1690 1050 3
322 RL 401 400 10.1 La Rochelle / Ile De Re FRA eu IN96ke 1 2021-01-18 2022-11-18 1388 862 267
322 TLN 15 4 18.95 ID+15" tone Hyeres / Le Palyvestre FRA eu JN33ba 50 2 keyed carrier NDB 2021-01-23 2022-09-26 1028 639 239
323 AB 398 406 10.42 ID+8" gap Albi / Le Sequestre FRA eu JN13av 2 2021-01-23 2022-10-30 1252 778 252
323 ONC 404 393 10.04 ID+6" gap Charleroi / Gosselies BEL eu JO20gl 25 1 2021-01-18 2022-08-29 936 582 289
324 AS 403 412 8.41 Kemi / Tornio FIN eu KP25eq 2 2021-01-23 2022-11-21 1984 1233 9
324 HE 374 373 7.13 ID+5" gap Notodden / Heddal NOR eu JO49mo 1 2021-01-18 2022-09-10 1362 846 340
324 MS 394 405 10.08 Mosjoen NOR eu JP65pt 1 2021-01-23 2022-04-25 1963 1220 354
324 ON 400 401 4.64 Norrkoping SWE eu JO88eo 2 2021-01-23 2022-11-25 1150 714 358
324 PTC 1022 1016 10.08 ID+6" gap Salerno / Pontecagnano ITA eu JN70ko 2 2021-01-23 2022-09-18 870 540 192
325 PG 400 401 5.34 ID+2" gap Trollhattan / Vanersborg SWE eu JO68fg 2 2021-01-23 2022-10-16 1152 716 346
325 RCA 1021 1022 10.04 ID+6" gap Reggio di Calabria (RC) ITA eu JM78ta 110 2 Province : Reggio di Calabria 2021-01-23 2021-12-29 1145 712 186
325 VG 1023 1031 8.44 ID+5.6" gap Zagreb / Pleso / Velika Gorica HRV eu JN85ar 2 2021-01-23 2022-10-12 293 182 195
326 C 1040 1049 5.25 ID+2" gap Debrecen HNG eu KN07tl 2 2021-01-23 2022-10-12 353 219 102
326 KG 396 403 4.31 ID+1" gap Kramfors / Bjartra SWE eu JP83uc 1 2021-01-18 2022-11-25 1650 1025 1
326 LM 399 407 10.12 Le Mans / Arnage FRA eu JN07cv 50 1 2021-01-18 2022-11-18 1249 776 274
326 PU 1026 398 10.05 St Petersburg / Pulkovo RUS eu KO59ct 1 400 / 1020 Hz OFFSETS 2021-01-18 2022-08-27 1538 956 28
327 LNZ 1023 1019 10.08 ID+6" gap Linz / Horsching AUT eu JN78df 2 2021-01-23 2022-11-25 204 127 269
327 MVC 402 403 10.26 DAID Merville / Calonne FRA eu JO10hn 2 2021-01-23 2022-11-18 1072 666 289
327 NC8 384 379 6.74 Cont. ID Hamada NC-8 LBY af JL69km 1 OFFICIALLY LISTED AS CW-327.0 2021-01-24 2022-10-29 2115 1314 191
327 OST 1023 1019 10.04 ID+7" gap Roma / Ostia (RM) ITA eu JN61ct 2 Province : Roma - EX OST-321 2021-01-23 2022-05-31 812 504 209
328 DK 405 394 3.67 ID+1" gap Vilhemina SWE eu JP84io 1 2021-01-18 2022-10-16 1816 1128 359
328 HIG 1063 1065 21.44 ID+20\" gap San Sebastian ESP eu IN93cj 200 1 2021-01-18 2022-11-18 1552 964 256
328 PHA 402 405 10.23 ID+7" gap Pafos CYP as KM64fr 1 2021-01-23 2022-04-05 1971 1225 134
328 VJ 400 399 7.97 ID+6" gap Stauning DNK eu JO45fx 2 2021-01-23 2022-08-27 1037 644 328
329 NMS 381 383 7.94 Namsos NOR eu JP54vl 2 Hrd by Bo Nensen on 1645 KHz (5x329) 2021-01-23 2022-09-10 1829 1137 351
329 VX 397 404 4.72 Vaxjo / Kronoberg SWE eu JO76iu 2 2021-01-23 2022-11-25 967 601 351
329 WU 406 412 4.52 Umea SWE eu KP03fr 2 WAS DU 2021-01-23 2022-11-25 1731 1076 5
330 MB 402 408 10.12 ID+8" gap Montbeliard / Courcelles FRA eu JN37lm 2 2021-01-23 2022-09-24 756 470 267
330 ML 927 885 7.5 ID+3" gap Kraljevo SRB eu KN03hs 2 2021-01-23 2022-10-30 572 355 149
330 NZ 392 401 10.05 ID+7" gap Ust-Labinsk RUS eu KN95uf 1 OFFSETS 400 / 1020 2021-01-18 2022-10-07 1753 1089 92
330 OB 1024 1017 10.08 ID+7" gap Bratislava / M.R Stefanik / South SVK eu JN88pc 2 2021-01-23 2022-08-26 26 16 134
330 SB 404 399 8.98 ID+6" gap Sonderborg DNK eu JO44rn 1 2021-01-18 2022-04-22 874 543 325
330 SKS 407 401 5.35 Karlstad SWE eu JO69pj 2 2021-01-24 2022-09-10 1261 783 350
330 ZRA 1003 1013 6.14 ID+2" gap Zadar / Kakman HRV eu JN73rx 1 1020/400 Hz OFFSETS 2021-01-18 2022-10-12 492 306 194
331 GRT 1023 1020 10.04 ID+7" gap Grottaglie (TA) ITA eu JN80rk 25 2 Province : Taranto 2021-01-23 2021-12-31 872 542 177
331 TUR 401 406 10.41 ID+7" gap Tours / Val De Loire FRA eu JN07jn 15 2 withdrawn 2022-04-27 2021-01-23 2022-04-22 1211 753 272
332 LL 407 404 10.18 ID+8" gap Lille / Lesquin FRA eu JO10on 1 Decommissioned on 2022-02-24 2021-01-18 2022-02-24 1031 641 289
332 RO 1033 1042 8.17 ID+6" gap Tivat MNE eu JN92gk 2 2021-01-23 2022-10-12 659 409 169
332 TLF 399 403 20.54 ID+6" gap Toulouse / Francazal FRA eu JN03oo 2 WAS ON 331.5 2021-01-23 2022-11-21 1327 824 252
332.5 CAM 397 401 8.09 ID+6" gap Cambridge ENG eu JO02cf 1 2021-01-18 2022-11-18 1272 790 296
333 G 402 409 4.22 Kemi-Tornio / Marttala FIN eu KP25gs 2 2021-01-24 2022-11-21 1995 1239 10
333 GFC 399 397 28.89 Statoil Gullfaks C Platform XOE iw JP11df 50 1 2021-01-18 2022-11-20 1715 1066 332
333 LE 407 403 3.96 Vasteraas / Hasslo SWE eu JO89ip 2 2021-01-23 2022-11-25 1265 786 359
333 PI 1030 1034 8.27 ID+6" gap Schwerin / Parchim DEU eu JO53wl 2 2021-01-23 2021-07-19 683 424 329
333.5 VOG 1024 1015 10.09 ID+5" gap Voghera (PV) ITA eu JN44lx 3 Province : Pavia 2021-01-23 2022-02-20 717 446 242
334 GMN 399 401 8.08 Gormanston IRL eu IO63vp 1 2021-01-18 2022-11-18 1725 1072 298
334 MR 386 411 4.29 ID+2"gap Maribor SVN eu JN76vi 49 2 2021-01-23 2022-09-24 233 145 204
334 VI 1027 1028 30.04 IDx2 + 23" gap Verchnie Vysotske UKR eu KN18mw 2 2021-01-23 2022-01-27 447 278 78
335 DR 1036 1042 15.02 IDx2 + 6" gap Dnipropetrovsk UKR eu KN78oi 1 2021-01-18 2022-11-01 1340 833 82
335 FV 1020 1019 20 IDx2 + 10" gap Venev RUS eu KO94ci 1 2021-01-18 2022-11-25 1611 1001 57
335 NAK 408 407 5.42 Stockholm / Bromma / Nacka SWE eu JO99cg 1 2021-01-18 2022-09-10 1225 761 3
335 POD 896 1164 15.68 ID+7" gap Podgorica MNE eu JN92pj 1 RX 336.5 2021-01-18 2021-12-08 676 420 164
335 TON 1029 1030 6.29 ID+3" gap Torralba de Aragon ESP eu IN91rw 300 2 WAS TRL 2021-01-24 2022-11-21 1544 960 249
335 WCO 400 405 6.92 Westcott ENG eu IO91mu 1 2021-01-18 2022-11-18 1341 833 294
336 LT 409 399 4.14 Halmstad SWE eu JO66kx 1 2021-01-18 2022-08-24 1008 626 345
336 RS 400 399 10.08 Roros NOR eu JP52pn 1 2021-01-18 2022-10-16 1628 1012 349
337 LHR 1026 1014 8.04 ID+4" gap Lahr / Schwarzwald DEU eu JN38vi 1 2021-01-18 2022-09-24 684 425 274
337 MY 430 368 11.93 ID+6" gap Myggenaes FRO eu IP62ec 1 2021-01-18 2022-11-23 2169 1348 324
337 VRN 984 1015 10.01 ID+7" tone Vranje SRB eu KN02wn 40 1 2021-01-18 2022-11-18 738 459 147
337.5 GNT 1 1 9.8 Shell / Esso Gannet A Platform XOE iw JO07le 1 Used a 400 Hz offset but has now keyed carrier modulation at 337.500 kHz 2021-01-18 2021-10-22 1462 908 318
338 MNW 399 400 10.08 ID+6" gap Munchen DEU eu JN58wi 25 1 2021-01-18 2022-09-24 382 237 273
338 NC 10.1 ID+8"gap Nice / Cote D'azur FRA eu JN33no 40 1 Not on Skyvector 2021-01-18 2022-03-15 925 575 239
338 OA 405 395 4.6 Jonkoping SWE eu JO77bt 1 2021-01-18 2022-11-25 1078 670 350
338 TIM 1015 1025 7.04 Timisoara ROU eu KN05ol 1 2021-01-18 2022-10-12 443 275 132
339 FG 400 400 10.19 ID+7" gap Montpellier / Mediterranee FRA eu JN23an 1 2021-01-18 2022-09-24 1132 703 247
339 V 402 404 4.22 ID+3" gap Kokkola / Kruunupyy FIN eu KP13nq 1 2021-01-18 2022-11-25 1754 1090 9
340 BLK 963 979 10.08 ID+5" tone Banja Luka BIH eu JN85pc 40 1 2021-01-18 2022-10-12 353 219 176
340 HEI 398 401 10.04 ID+8" gap Heidrun XOE iw JP35ph 50 1 2021-01-18 2022-10-16 1980 1230 346
340 PND 1013 998 15.18 ID+12" gap Valencia / Pinedo ESP eu IM99tk 300 2 WAS VLC 2021-01-23 2022-11-18 1701 1057 241
340 YY 399 399 10.42 DAID Mont Joli QC CAN na FN58un 500 1 Scheduled Decom with Navcan phase 8 July 14, 2022 2021-01-23 2022-06-13 5945 3694 304
340 ZIG 1022 1017 10.04 ID+6" gap Leipzig DEU eu JO61dk 2 2021-01-23 2022-09-24 490 304 317
341 ALG 1029 1048 8.39 ID+5" gap Memmingen / Allgau DEU eu JN57dx 1 2021-01-18 2022-09-24 502 312 268
342 OA 37 34 8.92 ID+6" tone Algiers / Houari Boumedienne ALG af JM16qs 1 keyed carrier NDB 2021-01-23 2022-11-18 1695 1053 226
342 PES 10.08 ID+7" gap Pescara ITA eu JN72ck 2 Decommissioned 2021-10-07 2021-01-23 2021-11-13 685 426 199
342 PK 1002 400 8 ID+3" gap St.Petersburg RUS eu KO59bt 1 400/1020 Hz OFFSET 2021-01-23 2022-11-25 1536 954 28
342 SL 396 397 4.52 Goteborg / Landvetter SWE eu JO67co 1 2021-01-23 2022-07-24 1086 675 344
342.5 NWI 398 399 8.09 Norwich ENG eu JO02pq 5 1 2021-01-18 2022-11-25 1215 755 299
343 KUS 391 399 10.08 ID+7" gap Kaunas / Karmelava LTU eu KO24bx 100 1 IDX = Negative Keying 2021-01-18 2022-11-25 891 554 30
344 HN 1031 1037 8.22 ID+2" gap + 4" tone Hohn DEU eu JO44uh 25 1 2021-01-18 2022-09-24 842 523 325
344 MN 1004 1022 11 ID+9" gap Menorca BAL eu JM29cu 50 1 SLOW KEYING 2021-01-18 2022-08-24 1385 860 232
344 VAR 8.3 ID+5" gap Varazdin HRV eu JN86eh 1 Not on Skyvector 2021-01-18 2022-03-15 223 139 193
344 WCK 410 407 6.68 Wick SCT eu IO88lk 25 1 WAS WCK 2021-01-18 2022-10-15 1736 1078 318
345 BN 380 382 9.02 ID+6" gap Kristiansand / Kjevik / Birkeland NOR eu JO48ch 1 Not on Skyvector 2021-01-18 2021-11-05 1259 782 335
345 IGB 1030 1029 16.45 ID+24" tone Ingolstadt DEU eu JN58tr 25 1 Call changed from IGL to IGB on 2022-03-25 2021-01-18 2022-11-01 402 250 279
345 NB 397 396 5.02 ID+3" gap Malbork POL eu JO94oa 1 **SENDING TST** MISKEYING KS 2021-01-18 2022-11-25 657 408 12
345 TAZ 1000 1024 9.93 ID+7" tone Tivat MNE eu JN92jg 50 1 2021-01-18 2022-10-12 681 423 167
345 THS 46 333 6.12 ID+2" gap Thessaloniki / Makedonia GRC eu KN10lo 1 2021-01-18 2021-01-30 973 604 149
345.5 CF 1060 1057 11.67 ID+10" gap Caslav / Chotusice / Centograf CZE eu JN79rv 1 ILA/ILE = Negative Keying 2020-06-27 2022-11-20 214 133 328
346 AU 424 403 4.48 Stauning DNK eu JO45co 1 2021-01-18 2022-10-13 1014 630 326
346 CH 401 412 10.19 ID+8" gap Chambery / Aix-Les-Bains FRA eu JN25wo 1 2021-01-18 2022-09-24 897 557 254
346 MI 406 415 8.48 Mikkeli / Korpikoski FIN eu KP31mr 1 2021-01-18 2022-11-25 1622 1008 19
346 WLU 1020 1020 10.08 ID+5" gap Luxembourg LUX eu JN39an 15 1 2021-01-18 2022-09-24 816 507 284
346 Y 1031 3.18 ID+1" gap Nyiregyhaza HNG eu KN07ux 1 2021-01-18 2022-10-16 348 216 93
347 CVT 402 407 10.23 ID+7" gap Chalons / Vatry FRA eu JN28ds 1 2021-01-18 2022-09-24 940 584 278
347 SAB 400 400 10.04 ID+7" gap Sabiha Gokcen TUR as KN40pv 1 2021-01-18 2022-10-07 1268 788 125
348 CL 400 408 10.15 ID+7" gap Cahors / Lalbenque FRA eu JN04rj 1 2021-01-18 2022-08-04 1269 788 255
348 TPL 1019 1005 9.95 ID+6" tone Topola SRB eu KN04id 1 2021-01-18 2022-08-29 538 334 147
348 WA 393 401 4.46 ID+2" gap Stockholm / Arlanda SWE eu JO89xp 1 2021-01-18 2022-11-25 1266 787 2
348 ZK 1017 1043 8.3 ID+5.5" gap Zadar HRV eu JN74qc 1 2021-01-18 2022-10-12 481 299 196
349 JX 394 404 5.37 ID+1" gap Vaxjo / Kronoberg SWE eu JO76jx 1 2021-01-18 2022-11-25 980 609 351
349 OPE 1011 1020 8.12 ID+5" gap Bucuresti / Otopeni ROU eu KN34cn 2 2021-01-18 2022-11-18 814 506 117
349 TAR 404 395 8.04 ID+5" gap Orland / Tarva NOR eu JP43rt 1 2021-01-23 2021-12-31 1788 1111 347
350 DWN 1039 1040 6.49 ID+5" gap Devnya For Varna BUL eu KN33tf 1 2021-01-18 2022-10-16 993 617 120
350 SK 1018 1028 8.49 ID+6" gap Zagreb / Pleso / S. Kraljevec HRV eu JN85bt 1 2021-01-18 2022-10-12 282 175 194
350 UK 398 400 20 IDx2 Yukhnov RUS eu KO74or 2 2021-01-23 2022-11-18 1442 896 53
351 ISI 1018 1027 8.13 ID+6" gap Iasi ROU eu KN37sf 1 2021-01-18 2022-11-18 793 493 94
351 SBH 393 395 6.12 Sumburgh Head SHE eu IO99iv 1 WAS SUM 2021-01-18 2022-10-16 1749 1087 324
351.5 PLA 1022 1022 8.12 ID+6" tone Pula HRV eu JN64vv 2000 2 2021-01-18 2022-11-21 450 280 214
352 BRY 1020 1022 8.1 ID+4" gap Yenisehir TUR as KN40tg 1 2021-01-18 2022-10-23 1337 831 127
352 LAA 1024 1018 10.04 Niederrhein DEU eu JO31co 45 1 2021-01-18 2022-11-21 858 533 299
354 MTZ 405 404 10.27 ID+7" gap Metz / Nancy-Lorraine FRA eu JN39cg 1 2021-01-18 2022-09-24 801 498 282
354 PAD 1034 1032 8.46 ID+4" gap Paderborn / Lippstadt DEU eu JO41ho 25 1 2021-01-18 2022-09-24 707 439 304
355 ARB 1137 945 10.05 ID+6" gap Ardabil IRN as LM48eh 1 Negative keying of 354.890 2021-01-18 2022-11-18 2742 1704 102
355 MI 391 406 3.9 ID+2" gap Maribor SVN eu JN76ul 75 1 2021-01-18 2022-11-10 223 139 207
355 OBR 1030 1027 8.17 ID+4" gap Beograd / Obrenovac SRB eu KN04bp 50 1 2021-01-18 2022-10-16 467 290 148
355 ONW 406 394 10.08 Antwerpen / Deurne BEL eu JO21ge 1 2021-01-18 2022-11-21 954 593 294
356 ANK 1015 1023 5.59 ID+3" gap Ankara / Esenboga TUR as KM69jw 1 2021-01-18 2022-10-07 1557 967 120
356 AY 10.36 DAID St Anthony NL CAN na GO11wj 25 1 decommissioned 2022-01-27 2021-01-23 2022-01-27 5036 3129 302
356 SGO 1032 1019 14.27 ID+10" gap Sagunto ESP eu IM99vq 300 1 Also hrd with 14.5\" cycle 2021-01-18 2022-11-18 1672 1039 241
356 WBA 401 397 5.89 Wolverhampton ENG eu IO82um 1 2021-01-18 2022-11-18 1444 897 296
357 CAS 10.08 ID+6.6" gap Caselle Torinese (TO) ITA eu JN35tc 25 1 decommissioned 2021-12-15 2021-01-18 2021-05-28 799 497 247
357 KD 403 403 3.9 Kolding / Vamdrup DNK eu JO45qk 1 2021-01-18 2022-11-18 954 593 329
357 LP 405 405 10.15 ID+8" gap Cholet / Le Pontreau FRA eu IN97nd 1 withdrawn effective date 2022-07-12 2021-01-18 2022-06-25 1343 835 271
357 RJ 1024 1021 8.35 ID+5" gap Tripoli / Mitiga LBY af JM62qv 1 EX MTG MISKEYING MTR/MER/MEG 2021-01-18 2022-11-18 1737 1079 191
357 SKZ 404 397 10.09 ID+6" gap Leipzig / Halle DEU eu JO61dj 1 2021-01-18 2022-09-24 486 302 317
357.5 FAL 1019 1021 10 ID+6" gap Falconara Marittima (AN) ITA eu JN63qp 25 2 decommissioned 2022-04-21 2021-01-18 2021-10-24 587 365 210
357.5 KG 1015 1019 10.03 ID+7" gap Sarajevo / Butmir / Kobiljaca BIH eu JN93cv 2 2021-01-18 2022-10-12 495 307 169
358 MSE 399 400 8.09 ID+2" gap Munchen DEU eu JN58th 25 1 'TEST' (NOV2018) 400 Hz OFFSETS - WAS MSE-385.0 2021-01-18 2022-05-30 401 249 272
358 RNN 405 408 10.15 ID+7" gap Roanne / Renaison FRA eu JN26ac 1 2021-01-18 2022-11-18 1010 628 261
359 RK 1023 1016 10.08 ID+7" gap Cerklje SVN eu JN75qv 1 WAS ON 328 2021-01-18 2022-09-24 293 182 206
359 RWY 407 407 8.17 Isle Of Man / Ronaldsway IOM eu IO74qb 20 1 2021-01-18 2022-11-18 1634 1015 301
360 O 1010 1031 8.12 ID+6.7" gap Oradea ROU eu KN07wb 1 2021-01-18 2022-10-12 386 240 108
360 TS 396 401 40 IDx3 + 29" gap Zadonsk RUS eu KO92lj 2 2021-01-23 2022-11-18 1615 1003 65
360 ULV 364 382 6.95 ID+2.2" gap Bronnoysund / Ulvingen NOR eu JP65bp 1 decommissioned 2021-09-30 2021-01-23 2021-09-24 1953 1214 353
360.5 MAK 404 396 10.08 ID+7" gap Mackel for Brussels Ntl BEL eu JO10rx 1 2021-01-18 2022-11-18 1022 635 292
361 NB 401 406 10.42 ID+8" gap Bordeaux / Merignac FRA eu IN95rd 25 1 2021-01-18 2022-11-21 1381 858 262
362 BVK 395 404 9.04 ID+5.8" gap Orsta-Volda / Hovden / Baatvik NOR eu JP22vf 1 2021-01-18 2022-11-21 1702 1058 339
362 L 1053 986 4.71 ID+4" gap Namest nad Oslavou CZE eu JN89cf 1 2021-01-18 2022-07-01 123 76 330
363 OEM 402 403 5.29 Kristianstad / Everod SWE eu JO75bx 1 WAS OE 2021-01-18 2022-11-25 880 547 348
364 MAL 1066 1065 6.94 ID+3" gap Gallarate / Malpensa (VA) ITA eu JN45jn 1 Province : Varese 2021-01-18 2022-01-20 695 432 247
364 NW 374 426 4.34 Stockholm / Skavsta / Nykoping SWE eu JO88js 1 2021-01-18 2022-09-24 1168 725 359
364 PU 401 407 10.19 Pau / Pyrenees FRA eu IN93uh 1 2021-01-18 2022-09-26 1448 900 254
365 LJ 1028 1017 7.65 ID+3" gap Koln / Bonn DEU eu JO30mw 25 1 2021-01-18 2022-09-24 778 484 296
366 KM 403 400 4.63 Kalmar SWE eu JO86cr 1 2021-01-18 2022-11-25 942 585 356
366 UTH 406 394 8.08 ID+5" gap Orland / Uthaug NOR eu JP43sr 1 2021-01-18 2022-03-10 1778 1105 347
367 VAT 403 408 10.15 ID+7" gap Chalon / Vatry FRA eu JN28at 1 2021-01-18 2022-11-21 958 595 278
368 RK 405 396 9.98 Copenhagen / Roskilde DNK eu JO55xo 1 2021-01-18 2022-05-17 886 551 338
368.5 ELU 1019 1020 8.09 ID+7" gap Luxembourg-Berg LUX eu JN39eq 15 2 2021-01-18 2022-09-24 793 493 285
369 MNE 399 400 8.09 ID+6" gap Munchen DEU eu JN58ui 25 1 SENDING 'TST\" MID OCT 2018 2021-01-18 2022-09-24 394 245 273
369 VRS 1032 1030 8.52 ID+5" gap Vrsar HRV eu JN65tf 1 2021-01-18 2022-11-21 427 265 218
370 BSV 396 409 10.23 DAID Besancon / La Veze FRA eu JN37cg 1 2021-01-18 2022-09-25 816 507 266
370 OTL 1019 1029 8.13 ID+4" gap Bucuresti / Otopeni ROU eu KN34an 1 SLOW KEYING 2021-01-18 2022-11-18 803 499 117
370.5 LB 408 405 4.97 Angelholm / Barkakra SWE eu JO66ji 1 2021-01-18 2022-11-21 944 586 343
371 BRS 403 397 10.08 Bremsnes for Kristiansund / Kvernberget NOR eu JP33tc 50 1 2021-01-18 2022-09-25 1747 1086 344
371 LEV 1068 1065 7.6 ID+3" gap Savigliano / Levaldigi (CN) ITA eu JN34tn 1 Province : Cuneo - SENDING 2 EXTRA 'e' 2021-01-18 2022-10-30 830 516 243
371 RIV 998 6 9.93 ID+6" gap Codroipo / Rivolto (UD) ITA eu JN65lw 1 Province : Udine 2021-01-18 2022-09-25 403 251 231
372 CE 1023 1024 8.4 ID+6" gap Osijek / Cepin HRV eu JN95gm 50 1 2021-01-23 2022-10-12 326 203 159
372 ODR 7.57 ID+3" gap Kristiansand / Kjevik / Odderoy NOR eu JO38xd 1 decommissioned 2021-12-02 2021-01-18 2021-11-09 1251 777 334
372 OZN 399 400 8.09 ID+5" gap Prins Christian Sund / Kitaa GRL na GP80kb 1 2021-01-18 2022-11-21 3971 2467 312
372 PY 401 406 10.27 ID+7" gap Le Puy / Loudes FRA eu JN15va 1 2021-01-23 2022-09-26 1072 666 255
373 D 1019 1021 8.12 ID+7" gap Tirgu Mures ROU eu KN26el 1 SLOW KEYING - DRIFTING !!! 2021-01-23 2022-11-18 587 365 107
373 KEM 404 413 8.47 ID+6" gap Kemi-Tornio / Hirmula FIN eu KP25hu 25 2 2021-01-23 2022-08-01 2005 1246 10
373 LCT 399 404 10.23 ID+7" gap Le Luc / Le Cannet FRA eu JN33ej 1 2021-01-18 2022-10-30 987 613 240
373 LPD 1023 1016 10.04 ID+6" gap Lampedusa (AG) SCY eu JM65hm 1 Province : Agrigento 2021-01-18 2022-07-12 1463 909 195
373 NW 401 400 8.12 ID+1" gap Maastricht / Beek HOL eu JO21wa 15 1 2021-01-23 2022-09-25 859 534 295
374 BGC 400 406 10.32 ID+6" gap Bergerac / Roumaniere FRA eu JN04ht 25 1 WAS RM 2021-01-18 2022-09-26 1310 814 259
374 BL 402 402 7.04 ID+6" gap Forde / Bringeland NOR eu JP21vj 1 2021-01-23 2022-10-15 1622 1008 338
374 FS 1025 1014 10.04 ID+8" gap Dresden DEU eu JO61we 1 2021-01-23 2022-09-26 396 246 326
374 KFT 1020 1021 20.08 ID+16" gap Klagenfurt AUT eu JN76go 1 2021-01-23 2022-09-25 264 164 226
375 BRG 1028 1031 10.3 ID+7" gap Bourges FRA eu JN17da 2 2021-01-23 2022-09-26 1112 691 268
375 DB 1020 1020 30 IDx3 Pochinok RUS eu KO97lr 1 400 / 1020 Hz OFFSETS 2021-01-23 2022-10-29 1791 1113 45
375 EKO 397 399 14.11 Ekofisk L XOE iw JO16on 1 WAS LF8L-544 2021-01-23 2022-11-21 1311 814 319
375 GLA 401 410 10.23 ID+6" gap Gland for Geneva / Cointrain SUI eu JN36cj 2 2021-01-23 2022-09-26 842 523 259
375 KD 406 400 4.88 Kristanstad / Everod SWE eu JO75av 2 2021-01-23 2022-11-25 872 542 347
375 RB 399 401 4.84 ID+2" gap Orebro SWE eu JO79md 1 2021-01-23 2022-11-25 1216 756 354
375 VM 1052 1051 3.43 ID+1" gap Vestmannaeyar ISL eu HP93uj 100 1 2021-01-23 2022-11-21 2810 1746 320
375 ZN 392 415 6.4 ID+4" gap Tozeur / Nefta TUN af JM43aw 50 1 EX 1020 OFFSET 2021-01-18 2022-01-01 1760 1094 208
376 BS 10.42 Bale / Mulhouse FRA eu JN37sn 1 decommissioned 2022-05-19 2021-01-23 2022-03-15 712 442 267
376 HAN 402 398 10.08 ID+7" gap Hahn DEU eu JN39px 25 2 2021-01-23 2021-07-10 734 456 288
376.5 ORI 1023 1027 5.86 ID+1" gap Orio al Serio (BG) ITA eu JN45wp 25 3 Province : Bergamo - NEGATIVE KEYING : EENR 2021-01-23 2022-09-25 617 383 244
377 BLC 889 966 12.3 ID+10" gap Blace SRB eu KN03qf 1 2021-01-23 2022-10-29 653 406 147
377 KR 1022 1020 10.05 Krasnodar / Pashkovskiy RUS eu KN95na 1 WAS K-377 - NEW ID FROM 06/2017 2021-01-23 2022-03-25 1718 1067 93
377 SM 402 396 3.28 ID+1" gap Mora / Siljan SWE eu JP70ev 2 2021-01-23 2022-11-21 1414 879 354
378 LU 396 405 10.12 ID+8" gap Le Luc / Le Cannet FRA eu JN33gj 25 1 2021-01-23 2022-09-28 976 607 240
378 RSY 9.09 Stavanger / Sola / Rennesoy NOR eu JO29td 1 decommissioned 2021-10-07 2021-01-23 2021-08-28 1419 882 332
378 TA 1013 1021 7.04 ID+6" gap Timisoara / Giarmata ROU eu KN05ou 2 2021-01-23 2022-10-12 414 257 128
378 TRI 1014 1019 7.25 ID+3" tone + 3" gap Split / Trogir HRV eu JN83cl 50 1 2021-01-23 2022-10-12 537 333 187
378 WSN 398 401 8.09 ID+6" gap Weser DEU eu JO43ki 2 2021-01-23 2022-11-25 804 500 317
379 EB 394 408 10.3 ID+8" gap St Etienne / Boutheon FRA eu JN25dp 2 2021-01-23 2022-09-26 1009 627 257
380 BW 1004 1020 8 Moscow / Sheremetyevo RUS eu KO85sx 1 2021-01-23 2022-10-12 1632 1014 50
380 FIL 1017 1022 13.23 ID+10" gap Horta / Faial Island AZR eu HM58pm 1 2021-01-23 2022-11-21 3790 2355 270
380 HO 401 407 10.19 ID+7" gap Colmar / Houssen FRA eu JN38qd 2 2021-01-23 2022-09-25 716 445 272
380 KN 1016 1016 10.02 ID+8" gap Beograd / Krnjesevci SRB eu KN04bv 2 2021-01-23 2022-10-12 443 275 146
380 ULA 401 394 4.03 Ula / BP Platform XOE iw JO17kc 50 1 2021-01-23 2022-09-28 1365 848 321
380 VNV 1016 1022 10.23 ID+6" gap Vilanova i la Geltru ESP eu JN01uf 2 2021-01-23 2022-09-25 1438 893 242
381 RG 403 395 10.08 Rygge / Tune NOR eu JO59mh 1 WAS RY 2021-01-23 2022-09-24 1288 800 344
381 SIB 1010 1021 8.12 ID+9" gap Sibiu / Turnisor ROU eu KN25bs 1 SLOW CW 2021-01-23 2022-11-18 604 375 114
382 FW 1017 1018 4.85 Frankfurt / Raunheim DEU eu JO40fa 25 1 2021-01-23 2022-09-25 653 406 290
382 IJ 399 405 8.28 Ilmajoki FIN eu KP21ft 1 2021-01-23 2022-10-12 1576 979 14
382 JSV 408 388 30.91 Johan Sverdrup XOE iw JO18gu 1 2021-01-23 2022-11-12 1510 939 326
382 SBG 1022 1018 10.04 ID+6" gap Salzburg / Oberndorf AUT eu JN67kx 50 2 2021-01-23 2022-11-25 311 193 265
383 EN 1036 1039 3.63 ID+2" gap Debrecen HNG eu KN07um 1 2021-01-23 2022-10-12 358 222 101
383 ERK 401 404 5.42 Erken SWE eu JO99ev 1 2021-01-23 2022-11-25 1295 805 3
383 MAR 378 423 10.21 ID+8" gap Marseille / Provence FRA eu JN23nl 25 1 2021-01-23 2022-09-25 1064 661 244
383 NA 989 1017 9.58 ID+7" tone Banja Luka BIH eu JN84pw 40 1 2021-01-23 2022-10-12 371 231 176
384 ADX 1048 1027 11.48 ID+4" gap Andraitx for Palma de Mallorca BAL eu JM19en 1 Also 13.6 cycle 2021-01-23 2022-10-15 1518 943 235
384 AT 402 405 10.34 ID+9" gap Annecy / Meythet FRA eu JN35au 2 2021-01-23 2022-09-25 874 543 256
384 IAS 1021 1020 8.12 ID+5" gap Iasi ROU eu KN37td 1 2021-01-18 2022-11-18 801 498 95
384 PMR 34 17 22.02 ID+18" tone Pamiers / Les Pujols FRA eu JN03tc 1 keyed carrier NDB 2021-01-23 2022-11-21 1325 823 250
384 TL 399 397 4.32 Aarhus DNK eu JO56hh 1 WAS TST-384 2021-01-23 2022-09-26 994 618 336
384 TY 410 391 4.35 Torsby / Fryklanda SWE eu JP60mc 1 2021-01-23 2022-09-26 1341 833 350
385 AVN 1011 1029 10.04 ID+7" gap Vilnius LTU eu KO24pp 2 2021-01-23 2022-11-28 909 565 35
385 BO 404 404 8.39 ID+5" gap Zadar / Bokanjac HRV eu JN74pe 40 1 2021-01-18 2022-11-28 474 294 197
385 NWT 401 405 4.92 ID+2.5" gap Leczyca POL eu JO91ox 2 MISKEYING NJ 2021-01-23 2022-11-28 440 274 19
386 BZ 400 400 10 Brize Norton ENG eu IO91er 50 1 2021-01-23 2022-11-26 1384 860 293
386 CP 406 404 9.55 ID+6" gap Constable Pynt / Nerlerit Inaat GRL na HQ80qr 1 HEARD AS CPe 2021-01-23 2022-11-27 3238 2012 334
386 LNE 1073 1074 4.74 ID+1" gap Milano / Linate (MI) ITA eu JN45pi 1 WAS LIN - Province : Milano 2021-01-18 2022-11-25 673 418 244
386 STD 397 400 8.13 ID+5" gap Stad Aan Het Haringvliet HOL eu JO21cr 1 Decommissioned August 12, 2021 2021-01-23 2021-08-12 993 617 297
387 AD 1009 909 7.5 ID+10" gap Kraljevo SRB eu KN03hs 1 HEARD AS ATI 2021-01-18 2022-11-26 572 355 149
387 CT 400 404 10.42 ID+8" gap Ajaccio / Campo Del Oro COR eu JN41it 1 2021-01-23 2022-10-13 971 603 225
387 ING 399 400 10.15 St. Inglevert FRA eu JO00uv 25 1 Decomissioned 2022-01-27 2021-01-23 2022-01-25 1141 709 290
387 MA 1055 1055 14.8 IDx2 Levashovo RUS eu KP50cc 1 2021-01-23 2021-05-21 1564 972 27
387 SLT 954 966 28.53 DAID Sylt / Westerland DEU eu JO44eu 1 2021-01-23 2022-09-24 944 587 324
388 BR 396 406 10.12 ID+8" gap Lyon / Bron FRA eu JN25lo 1 2021-01-23 2022-11-28 963 598 256
388 COR 401 402 6.73 Corner for Bromma SWE eu JO89rg 2 2021-01-23 2022-11-28 1223 760 1
388 KRU 404 411 8.53 Kokkola-Pietarsaari / Kruunupyy FIN eu KP13ot 1 2021-01-23 2022-11-28 1768 1099 9
388 PZ 1016 1031 10.04 ID+7" gap Portoroz SVN eu JN65tl 1 2021-01-18 2022-04-20 405 251 221
388.5 CDF 402 400 6.62 Cardiff WLS eu IO81hj 10 1 2021-01-23 2022-11-28 1500 932 291
389 HN 401 399 10.08 Orsta-Volda / Hovden NOR eu JP32ad 1 2021-01-23 2022-11-28 1688 1049 340
389 PX 399 405 10.21 ID+7" gap Perigueux / Bassillac FRA eu JN05ke 25 1 2021-01-23 2022-11-28 1276 793 260
390 AVI 1038 1032 8.37 ID+5" gap Aviano (PN) ITA eu JN65fw 35 1 Province : Pordenone 2021-01-23 2022-11-28 433 269 234
390 VAL 988 1008 10.21 ID+5" tone Valjevo SRB eu JN94wh 1 Negative ID : BNNU 2021-01-23 2022-11-28 491 305 152
390.5 ITR 58 18.9 ID+16" tone Istres / Le Tube FRA eu JN23lm 2 keyed carrier NDB 2021-01-23 2022-11-28 1072 666 244
391 BV 393 414 10.18 Beauvais / Tille FRA eu JN19al 20 1 2021-01-23 2022-11-28 1103 685 282
391 CC 399 402 10.21 ID+7" gap Chalon / Champforgeuil FRA eu JN26kr 1 2021-01-23 2022-11-28 929 577 263
391 OKR 1019 1022 10.04 ID+5" gap Bratislava / M.R Stefanik / North SVK eu JN88pf 2000 1 2021-01-23 2022-11-28 19 12 103
392 AS 402 401 10.3 ID+9" gap Angers / Avrille FRA eu IN97wn 1 2021-01-23 2022-11-28 1279 795 272
392 LAB 1021 1026 10.04 ID+6" gap Labraq / El Beida LBY af KM02xs 1 MISKEYED AS LA6E / LAH 2021-01-23 2021-12-19 1772 1101 164
392 RW 1017 1023 10.08 ID+7" gap Berlin / Tegel West DEU eu JO62nn 50 2 2021-01-23 2021-12-25 552 343 331
392.5 TOP 1025 1017 10.08 ID+6" gap Torino / Poirino (TO) ITA eu JN34ww 3 Province : Torino 2021-01-23 2022-03-27 792 492 245
393 ARA 417 402 9.5 Amoco / Arbroath A Platform XOE iw JO07qi 1 2021-01-23 2022-05-05 1453 902 319
393 BD 406 405 10.12 ID+8" gap Bordeaux / Merignac FRA eu IN94rw 1 2021-01-23 2022-11-28 1390 864 261
393 TAT 404 398 10.02 Molde / Aro / Tautra NOR eu JP32kq 1 2021-01-23 2022-11-28 1721 1070 342
394 DND 398 398 8.09 Dundee SCT eu IO86kk 25 1 2021-01-23 2022-11-28 1634 1015 311
394 IZA 1018 1011 8.01 ID+5" gap Ibiza BAL eu JM08rv 250 2 WAS IBZ 2021-01-23 2022-11-28 1626 1010 235
394 LYE 1022 1019 8.13 ID+3" gap Lubeck / Blanckensee DEU eu JO53it 1 2021-01-18 2022-11-26 758 471 326
394 NB 395 406 4.56 Stockholm / Bromma SWE eu JO89vj 1 2021-01-23 2022-07-01 1238 769 1
394 NV 398 404 10.42 ID+8" gap Nevers / Fourchambault FRA eu JN16ow 1 2021-01-23 2022-11-28 1046 650 267
395 B 1000 1004 7.38 ID+9" gap Bilbao ESP eu IN83li 1 2021-01-23 2022-11-27 1644 1021 258
395 FC 20 22.43 ID+15" tone Figeac / Livernon FRA eu JN04vq 1 keyed carrier NDB 2021-01-23 2022-11-28 1231 765 256
395 KW 398 403 8.09 Kirkwall / Orkney Isl. ORK eu IO88nx 1 2021-01-23 2022-11-28 1760 1094 319
395 MLT 971 972 7.33 ID+4.5" gap Malta MLT eu JM75gt 400 1 2021-01-23 2021-08-10 1400 870 189
395 OA 399 402 8.12 Amsterdam / Schiphol / Assendelft HOL eu JO22jl 15 1 Decommissioned August 12, 2021 2021-01-23 2021-08-12 985 612 302
395 OB 401 402 10.15 ID+7" gap Marseille / Provence FRA eu JN23tf 25 1 SENDING \"OB e\" 2021-01-23 2022-11-27 1047 650 241
396 RON 1026 1015 10.04 ID+4.5" gap Ronchi dei Legionari (GO) ITA eu JN65qt 25 2 Province : Gorizia 2021-01-23 2022-11-28 390 242 226
396 YG 403 397 10.04 Rygge / Enge NOR eu JO59ji 1 2021-01-23 2022-11-28 1297 806 344
397 BLB 398 404 10.26 ID+6" gap Blois / Le Breuil FRA eu JN07oq 1 2021-01-23 2022-11-28 1178 732 272
397 CV 1020 1014 8.45 ID+5" gap Dubrovnik / Cavtat HRV eu JN92co 2 2021-01-23 2022-11-27 637 396 171
397 EG 400 412 10.3 ID+8" gap Grenoble / St Geoirs FRA eu JN25qi 1 2021-01-23 2022-07-11 944 587 254
397 EHN 401 397 8.12 ID+6" gap Eindhoven HOL eu JO21ql 15 1 Decommissioned August 12, 2021 2021-01-23 2021-08-12 908 564 297
397 LM 401 400 5.25 Borlange / Rommehed / Falun SWE eu JP70tj 1 2021-01-23 2022-11-28 1351 840 356
397 PO 398 407 10.21 Pau / Pyrenees FRA eu IN93wh 1 2021-01-23 2022-11-27 1437 893 253
397 UM 397 400 10.05 ID+7" gap Tartu / Ulenurme EST eu KO38jh 1 2021-01-23 2022-11-28 1288 800 26
397 ZR 1020 25 17.2 DAID Beziers / Vias FRA eu JN13ph 1 keyed carrier NDB 2021-01-23 2022-11-28 1198 744 247
398 ESS 413 409 8.49 Kokkola-Pietarsaari /Kruunupyy / Esse FIN eu KP13np 2 2021-01-23 2022-11-28 1749 1087 9
398 LPD 41 20.6 ID+17" tone Montlucon / Gueret FRA eu JN16eh 2 keyed carrier NDB 2021-01-23 2022-03-26 1125 699 264
398 LRN 402 404 10.27 ID+6" gap Lorquin / Xouaxange FRA eu JN38lq 1 2021-01-23 2022-11-28 744 462 277
398 MT 398 409 10.3 ID+9" gap St Nazaire / Montoir FRA eu IN87xi 50 1 2021-01-23 2022-11-28 1425 885 273
398 PEO 404 397 5.8 Stockhlom / Skavsta / Peola SWE eu JO88mt 2 2021-01-23 2022-11-28 1172 728
398 PRU 1022 1015 10.08 ID+6" gap Perugia / San Egidio ITA eu JN63gc 2 2021-01-23 2022-07-01 672 418 212
399 FM 403 402 4.89 Trollhattan / Vanersborg SWE eu JO68di 2 2021-01-23 2022-11-28 1164 723 346
399 KMN 400 408 6.49 IDx1+2" gap Burgas / Kamenar BUL eu KN32tp 1 2021-01-23 2022-11-28 1034 642 123
399.5 ONO 401 398 10.04 ID+6" gap Oostende BEL eu JO11lf 25 2 2021-01-23 2022-11-28 1062 660 293
400 AG 400 404 10.42 ID+8" gap Agen / La Garenne FRA eu JN04id 1 2021-01-23 2022-11-23 1335 829 255
400 BC 1017 1020 6.04 ID+2" gap Bekescsaba HNG eu KN06nq 1 2021-01-23 2022-10-30 354 220 118
400 BRZ 1026 1028 8.33 ID+4" gap Rijeka / Krk / Breza HRV eu JN75ek 2000 2 2021-01-23 2022-10-31 375 233 213
400 EN 401 405 3.81 Orebro SWE eu JO79mg 1 2021-01-23 2022-11-25 1230 764 354
400 MSW 399 398 10.1 ID+7" gap Munchen DEU eu JN58wi 100 1 2021-01-23 2022-10-30 382 237 273
400.5 COD 1020 1016 10.09 ID+5" gap Codogno (LO) ITA eu JN45sf 2 Province : Lodi 2021-01-23 2022-10-30 664 412 242
401 BPL 1027 1012 10.1 ID+2.5" gap Bari / Palese (BA) ITA eu JN81gc 1 Province : Bari 2021-01-23 2021-08-30 798 496 183
401 LA 404 407 10.42 ID+7" gap Laval / Entrammes FRA eu IN97px 1 withdrawn effective date 2022-07-12 2021-01-23 2022-07-11 1315 817 275
401 PTC 1016 1041 13.93 ID+11" gap Porto Colom for Palma De Mallora BAL eu JM19pk 1 2021-01-23 2022-11-23 1472 915 233
401 RBU 401 396 10.04 ID+6" gap Roros / Rambu NOR eu JP52sm 1 WAS ON 352.0 2021-01-23 2022-10-31 1621 1007 349
402 CAR 1018 1023 10.04 ID+4" gap Villasimius / Capo Carbonara (CA) SAR eu JM49sc 40 1 Province : Cagliari 2021-01-23 2021-05-29 1183 735 213
402 OP 403 394 10.04 ID+7" gap Brussels National BEL eu JO20hw 1 400 HZ OFFSETS SINCE 9 MAR 2008 2021-01-23 2022-10-29 941 585 293
402 TH 407 396 2.99 ID+1" gap Torsby SWE eu JP60ke 1 2021-01-23 2022-10-30 1352 840 350
403 LPS 413 393 10.01 ID+6" gap Les Eplatures SUI eu JN37jb 1 2021-01-23 2022-10-29 779 484 263
403 MB 1019 1022 10.08 ID+7" gap Marsa Brega LBY af JM90sk 1 400 / 1020 Hz OFFSETS 2021-01-23 2022-10-30 1994 1239 172
403 NM 395 404 3.55 ID+2" gap Mora / Slijan SWE eu